Time;durP1;ratioP1;P1;durP2;ratioP2;P2;SDS_P1;SDS_P2;PMS_P1;PMS_P2;Temp;Humidity;BMP_temperature;BMP_pressure;BME280_temperature;BME280_humidity;BME280_pressure;Samples;Min_cycle;Max_cycle;Signal;HPM_P1;HPM_P2
2021/08/14 00:00:00;;;;;;;12.67;4.27;;;15.90;99.90;;;;;;4995951;28;20288;-84
2021/08/14 00:02:26;;;;;;;7.70;3.70;;;15.80;99.90;;;;;;4995903;28;20255;-84
2021/08/14 00:04:51;;;;;;;9.87;3.57;;;15.80;99.90;;;;;;4979476;28;20181;-83
2021/08/14 00:07:17;;;;;;;9.93;3.70;;;15.70;99.90;;;;;;4979545;28;20252;-83
2021/08/14 00:09:42;;;;;;;7.97;3.20;;;15.70;99.90;;;;;;4979786;28;20215;-84
2021/08/14 00:12:09;;;;;;;9.20;3.70;;;15.70;99.90;;;;;;4996546;28;20184;-85
2021/08/14 00:14:34;;;;;;;8.20;3.50;;;15.60;99.90;;;;;;4979613;28;20774;-84
2021/08/14 00:17:00;;;;;;;6.03;3.50;;;15.60;99.90;;;;;;4983905;28;20218;-83
2021/08/14 00:19:26;;;;;;;7.57;3.60;;;15.60;99.90;;;;;;4995058;28;20191;-84
2021/08/14 00:21:51;;;;;;;9.33;3.53;;;15.70;99.90;;;;;;4995009;28;20204;-84
2021/08/14 00:24:17;;;;;;;7.37;3.23;;;15.60;99.90;;;;;;4994876;28;20208;-83
2021/08/14 00:26:43;;;;;;;9.37;3.47;;;15.60;99.90;;;;;;4995086;28;20183;-83
2021/08/14 00:29:08;;;;;;;8.13;3.50;;;15.60;99.90;;;;;;4994443;28;20208;-83
2021/08/14 00:31:34;;;;;;;10.43;3.80;;;15.50;99.90;;;;;;4978574;28;20180;-84
2021/08/14 00:33:59;;;;;;;8.40;3.40;;;15.50;99.90;;;;;;4994491;28;20197;-83
2021/08/14 00:36:25;;;;;;;7.87;3.60;;;15.50;99.90;;;;;;4978069;28;20184;-84
2021/08/14 00:38:50;;;;;;;7.47;3.63;;;15.50;99.90;;;;;;4978080;28;20690;-84
2021/08/14 00:41:16;;;;;;;12.13;3.67;;;15.40;99.90;;;;;;4994925;28;20670;-84
2021/08/14 00:43:43;;;;;;;9.93;3.67;;;15.40;99.90;;;;;;4995833;28;20259;-84
2021/08/14 00:46:08;;;;;;;10.50;4.23;;;15.50;99.90;;;;;;4979099;28;20191;-83
2021/08/14 00:48:35;;;;;;;7.87;3.20;;;15.40;99.90;;;;;;4995686;28;20203;-83
2021/08/14 00:51:00;;;;;;;5.73;3.23;;;15.40;99.90;;;;;;4994808;28;20559;-84
2021/08/14 00:53:26;;;;;;;8.53;3.60;;;15.50;99.90;;;;;;4979142;28;20216;-84
2021/08/14 00:55:52;;;;;;;12.17;3.60;;;15.40;99.90;;;;;;4978615;28;20648;-84
2021/08/14 00:58:17;;;;;;;7.40;3.43;;;15.50;99.90;;;;;;4979131;28;20190;-83
2021/08/14 01:00:43;;;;;;;8.53;3.70;;;15.40;99.90;;;;;;4994385;28;20211;-84
2021/08/14 01:03:08;;;;;;;9.30;3.67;;;15.40;99.90;;;;;;4978576;28;20262;-83
2021/08/14 01:05:47;;;;;;;6.70;3.57;;;15.40;99.90;;;;;;4978732;28;20604;-84
2021/08/14 01:08:13;;;;;;;8.33;3.90;;;15.40;99.90;;;;;;4996613;28;20165;-84
2021/08/14 01:10:39;;;;;;;7.20;3.47;;;15.50;99.90;;;;;;4978357;28;20176;-84
2021/08/14 01:13:04;;;;;;;9.17;3.60;;;15.30;99.90;;;;;;4995291;28;20223;-83
2021/08/14 01:15:30;;;;;;;9.50;3.73;;;15.40;99.90;;;;;;4978715;28;20192;-84
2021/08/14 01:17:56;;;;;;;7.60;3.67;;;15.20;99.90;;;;;;4995429;28;20591;-84
2021/08/14 01:20:22;;;;;;;7.40;3.83;;;15.20;99.90;;;;;;4978095;28;20191;-84
2021/08/14 01:22:47;;;;;;;9.37;4.00;;;15.20;99.90;;;;;;4978832;28;20204;-84
2021/08/14 01:25:13;;;;;;;6.77;3.70;;;15.10;99.90;;;;;;4978147;28;20183;-84
2021/08/14 01:27:39;;;;;;;7.10;3.67;;;15.20;99.90;;;;;;4978274;28;20180;-84
2021/08/14 01:30:05;;;;;;;5.80;3.50;;;15.10;99.90;;;;;;4993128;28;20667;-84
2021/08/14 01:32:31;;;;;;;6.90;3.40;;;15.10;99.90;;;;;;4994313;28;20198;-83
2021/08/14 01:34:58;;;;;;;8.37;3.70;;;15.10;99.90;;;;;;4978037;28;20271;-84
2021/08/14 01:37:23;;;;;;;8.00;3.20;;;15.10;99.90;;;;;;4978046;28;20211;-83
2021/08/14 01:39:49;;;;;;;6.57;3.67;;;14.90;99.90;;;;;;4978152;28;20496;-84
2021/08/14 01:42:15;;;;;;;9.47;3.30;;;15.00;99.90;;;;;;4994234;28;20250;-83
2021/08/14 01:44:40;;;;;;;7.13;3.33;;;14.90;99.90;;;;;;4977926;28;20186;-84
2021/08/14 01:47:07;;;;;;;7.83;3.27;;;14.80;99.90;;;;;;4977607;28;20639;-83
2021/08/14 01:49:33;;;;;;;6.93;3.13;;;14.80;99.90;;;;;;4978174;28;20640;-83
2021/08/14 01:51:58;;;;;;;8.63;3.40;;;14.80;99.90;;;;;;4978345;28;20176;-84
2021/08/14 01:54:24;;;;;;;8.23;3.10;;;14.80;99.90;;;;;;4979593;28;20211;-83
2021/08/14 01:56:50;;;;;;;4.63;2.90;;;14.90;99.90;;;;;;4979175;28;20188;-83
2021/08/14 01:59:15;;;;;;;6.77;3.47;;;14.90;99.90;;;;;;4996325;28;20188;-84
2021/08/14 02:01:41;;;;;;;6.80;2.90;;;14.80;99.90;;;;;;4995924;28;20184;-83
2021/08/14 02:04:07;;;;;;;7.07;3.20;;;14.80;99.90;;;;;;4978076;28;20244;-83
2021/08/14 02:06:33;;;;;;;7.10;3.53;;;14.90;99.90;;;;;;4977658;28;20180;-83
2021/08/14 02:08:59;;;;;;;6.60;3.70;;;14.80;99.90;;;;;;4978112;28;20220;-84
2021/08/14 02:11:25;;;;;;;8.60;3.17;;;14.80;99.90;;;;;;4977912;28;20266;-83
2021/08/14 02:13:51;;;;;;;7.37;3.60;;;14.70;99.90;;;;;;4977654;28;20200;-84
2021/08/14 02:16:17;;;;;;;7.20;3.13;;;14.70;99.90;;;;;;4993721;28;20185;-84
2021/08/14 02:18:42;;;;;;;7.40;3.20;;;14.60;99.90;;;;;;4994303;28;20207;-84
2021/08/14 02:21:08;;;;;;;8.77;3.30;;;14.60;99.90;;;;;;4978298;28;20176;-83
2021/08/14 02:23:34;;;;;;;8.93;3.53;;;14.60;99.90;;;;;;4977773;28;20204;-83
2021/08/14 02:26:00;;;;;;;7.77;3.10;;;14.50;99.90;;;;;;4978937;28;20227;-84
2021/08/14 02:28:26;;;;;;;8.27;3.10;;;14.50;99.90;;;;;;4978825;28;20270;-84
2021/08/14 02:30:52;;;;;;;4.93;2.87;;;14.50;99.90;;;;;;4994326;28;20173;-83
2021/08/14 02:33:17;;;;;;;8.23;3.30;;;14.50;99.90;;;;;;4979513;28;20595;-83
2021/08/14 02:35:43;;;;;;;7.33;2.97;;;14.50;99.90;;;;;;4979771;28;20203;-84
2021/08/14 02:38:08;;;;;;;6.33;3.70;;;14.50;99.90;;;;;;4978471;28;20766;-83
2021/08/14 02:40:35;;;;;;;7.27;3.60;;;14.50;99.90;;;;;;4994541;28;20178;-84
2021/08/14 02:43:01;;;;;;;7.27;3.40;;;14.50;99.90;;;;;;4984869;28;20232;-84
2021/08/14 02:45:27;;;;;;;7.80;3.27;;;14.40;99.90;;;;;;4998286;28;20169;-84
2021/08/14 02:47:55;;;;;;;7.30;3.23;;;14.40;99.90;;;;;;4987770;28;20248;-83
2021/08/14 02:50:21;;;;;;;6.37;3.07;;;14.40;99.90;;;;;;4983749;28;20208;-84
2021/08/14 02:52:47;;;;;;;8.30;3.53;;;14.40;99.90;;;;;;4982572;28;20220;-83
2021/08/14 02:55:12;;;;;;;7.17;3.47;;;14.40;99.90;;;;;;4982210;28;20169;-83
2021/08/14 02:57:38;;;;;;;7.27;3.40;;;14.30;99.90;;;;;;4997784;28;20609;-83
2021/08/14 03:00:04;;;;;;;5.83;3.10;;;14.30;99.90;;;;;;4997747;28;20183;-84
2021/08/14 03:02:30;;;;;;;7.40;3.60;;;14.30;99.90;;;;;;4981297;28;20208;-84
2021/08/14 03:04:55;;;;;;;6.97;3.50;;;14.30;99.90;;;;;;4997558;28;20180;-83
2021/08/14 03:07:21;;;;;;;8.47;3.47;;;14.30;99.90;;;;;;4997661;28;20280;-83
2021/08/14 03:09:46;;;;;;;5.57;3.20;;;14.30;99.90;;;;;;4981249;28;20201;-83
2021/08/14 03:12:12;;;;;;;7.13;3.63;;;14.40;99.90;;;;;;4997434;28;20183;-83
2021/08/14 03:14:38;;;;;;;8.73;3.53;;;14.30;99.90;;;;;;4980901;28;20590;-83
2021/08/14 03:17:05;;;;;;;5.53;3.30;;;14.40;99.90;;;;;;4997282;28;20169;-83
2021/08/14 03:19:31;;;;;;;7.07;3.30;;;14.40;99.90;;;;;;4980679;28;20637;-83
2021/08/14 03:21:56;;;;;;;7.00;3.40;;;14.40;99.90;;;;;;4981303;28;20227;-84
2021/08/14 03:24:23;;;;;;;6.87;3.57;;;14.50;99.90;;;;;;4981131;28;20204;-83
2021/08/14 03:26:49;;;;;;;5.30;3.17;;;14.50;99.90;;;;;;4981124;28;20643;-83
2021/08/14 03:29:14;;;;;;;9.37;3.93;;;14.50;99.90;;;;;;4980656;28;20215;-83
2021/08/14 03:31:40;;;;;;;9.47;3.67;;;14.50;99.90;;;;;;4981618;28;20184;-83
2021/08/14 03:34:05;;;;;;;11.73;3.80;;;14.50;99.90;;;;;;4981285;28;20608;-84
2021/08/14 03:36:31;;;;;;;6.43;3.57;;;14.60;99.90;;;;;;4981937;28;20710;-84
2021/08/14 03:38:57;;;;;;;5.97;3.27;;;14.60;99.90;;;;;;4981154;28;20188;-84
2021/08/14 03:41:22;;;;;;;7.93;3.47;;;14.50;99.90;;;;;;4982802;28;20180;-83
2021/08/14 03:43:48;;;;;;;7.03;3.93;;;14.60;99.90;;;;;;4999516;28;20208;-83
2021/08/14 03:46:13;;;;;;;6.70;3.33;;;14.60;99.90;;;;;;4998463;28;20246;-83
2021/08/14 03:48:39;;;;;;;6.60;3.13;;;14.60;99.90;;;;;;4998069;28;20196;-84
2021/08/14 03:51:04;;;;;;;8.43;3.60;;;14.60;99.90;;;;;;4980688;28;20272;-83
2021/08/14 03:53:31;;;;;;;6.10;3.57;;;14.50;99.90;;;;;;4994676;28;20212;-83
2021/08/14 03:55:57;;;;;;;7.20;3.83;;;14.50;99.90;;;;;;4980066;28;20226;-83
2021/08/14 03:58:22;;;;;;;8.63;3.60;;;14.50;99.90;;;;;;4980467;28;20184;-83
2021/08/14 04:00:48;;;;;;;8.80;4.00;;;14.50;99.90;;;;;;4980082;28;20204;-83
2021/08/14 04:03:14;;;;;;;8.73;4.20;;;14.50;99.90;;;;;;4996214;28;20196;-83
2021/08/14 04:05:39;;;;;;;7.53;4.13;;;14.40;99.90;;;;;;4980071;28;20215;-83
2021/08/14 04:08:05;;;;;;;7.73;3.67;;;14.40;99.90;;;;;;4980185;28;20699;-83
2021/08/14 04:10:30;;;;;;;9.40;4.70;;;14.40;99.90;;;;;;4980015;28;20585;-83
2021/08/14 04:12:56;;;;;;;5.53;3.70;;;14.40;99.90;;;;;;4980683;28;20612;-83
2021/08/14 04:15:21;;;;;;;9.30;4.33;;;14.40;99.90;;;;;;4980735;28;20177;-82
2021/08/14 04:17:47;;;;;;;9.00;4.30;;;14.40;99.90;;;;;;4997129;28;20188;-82
2021/08/14 04:20:12;;;;;;;7.60;4.10;;;14.40;99.90;;;;;;4980225;28;20732;-83
2021/08/14 04:22:38;;;;;;;6.23;3.83;;;14.40;99.90;;;;;;4979850;28;20204;-83
2021/08/14 04:25:04;;;;;;;8.30;4.20;;;14.40;99.90;;;;;;4996235;28;20264;-82
2021/08/14 04:27:30;;;;;;;6.97;3.93;;;14.40;99.90;;;;;;4979925;28;20605;-83
2021/08/14 04:29:56;;;;;;;6.90;3.93;;;14.40;99.90;;;;;;4996005;28;20200;-83
2021/08/14 04:32:21;;;;;;;6.77;3.83;;;14.40;99.90;;;;;;4996222;28;20189;-83
2021/08/14 04:34:47;;;;;;;7.53;4.33;;;14.40;99.90;;;;;;4980516;28;20176;-83
2021/08/14 04:37:13;;;;;;;7.90;4.17;;;14.30;99.90;;;;;;4979514;28;20230;-83
2021/08/14 04:39:39;;;;;;;8.40;3.97;;;14.40;99.90;;;;;;4978963;28;20694;-83
2021/08/14 04:42:05;;;;;;;7.97;3.93;;;14.30;99.90;;;;;;4979175;28;20668;-83
2021/08/14 04:44:30;;;;;;;8.30;4.00;;;14.30;99.90;;;;;;4995406;28;20227;-83
2021/08/14 04:46:56;;;;;;;7.30;4.20;;;14.40;99.90;;;;;;4979102;28;20180;-83
2021/08/14 04:49:22;;;;;;;12.33;4.67;;;14.30;99.90;;;;;;4978575;28;20204;-83
2021/08/14 04:51:47;;;;;;;10.80;4.77;;;14.30;99.90;;;;;;4979203;28;20229;-83
2021/08/14 04:54:13;;;;;;;8.80;4.70;;;14.30;99.90;;;;;;4995025;28;20204;-83
2021/08/14 04:56:38;;;;;;;12.07;5.40;;;14.30;99.90;;;;;;4978915;28;20183;-83
2021/08/14 04:59:04;;;;;;;9.00;5.20;;;14.30;99.90;;;;;;4978416;28;20187;-83
2021/08/14 05:01:30;;;;;;;10.73;6.03;;;14.30;99.90;;;;;;4995256;28;20186;-83
2021/08/14 05:03:55;;;;;;;9.53;6.10;;;14.30;99.90;;;;;;4979096;28;20207;-83
2021/08/14 05:06:21;;;;;;;10.87;5.63;;;14.30;99.90;;;;;;4979275;28;20224;-83
2021/08/14 05:08:46;;;;;;;11.23;5.50;;;14.40;99.90;;;;;;4996108;28;20211;-83
2021/08/14 05:11:13;;;;;;;10.83;6.07;;;14.50;99.90;;;;;;4979336;28;20207;-83
2021/08/14 05:13:38;;;;;;;13.77;6.57;;;14.50;99.90;;;;;;4996082;28;20564;-82
2021/08/14 05:16:04;;;;;;;10.77;6.80;;;14.50;99.90;;;;;;4981074;28;20177;-83
2021/08/14 05:18:29;;;;;;;14.27;7.27;;;14.50;99.90;;;;;;5000263;28;20327;-83
2021/08/14 05:20:55;;;;;;;11.30;6.53;;;14.50;99.90;;;;;;4986564;28;20180;-82
2021/08/14 05:23:20;;;;;;;12.20;6.37;;;14.60;99.90;;;;;;5001686;28;20196;-83
2021/08/14 05:25:46;;;;;;;11.97;7.27;;;14.60;99.90;;;;;;4984197;28;20180;-82
2021/08/14 05:28:11;;;;;;;13.13;7.00;;;14.70;99.90;;;;;;4982954;28;20521;-83
2021/08/14 05:30:37;;;;;;;11.03;6.87;;;14.70;99.90;;;;;;4982797;28;20192;-82
2021/08/14 05:33:03;;;;;;;11.87;7.10;;;14.80;99.90;;;;;;4982068;28;20219;-83
2021/08/14 05:35:28;;;;;;;11.17;6.67;;;14.80;99.90;;;;;;4982008;28;20176;-83
2021/08/14 05:37:54;;;;;;;12.60;7.80;;;14.90;99.90;;;;;;4980946;28;20191;-83
2021/08/14 05:40:19;;;;;;;11.30;7.03;;;15.00;99.90;;;;;;4980769;28;20647;-82
2021/08/14 05:42:45;;;;;;;9.83;7.03;;;15.20;99.90;;;;;;4981331;28;20283;-79
2021/08/14 05:45:11;;;;;;;12.00;7.20;;;15.20;99.90;;;;;;4980812;28;20184;-80
2021/08/14 05:47:36;;;;;;;14.97;7.87;;;15.30;99.90;;;;;;4978986;28;20184;-86
2021/08/14 05:50:02;;;;;;;8.97;7.03;;;15.40;99.90;;;;;;4994652;28;20250;-85
2021/08/14 05:52:27;;;;;;;14.47;7.77;;;15.50;99.90;;;;;;4977844;28;20212;-86
2021/08/14 05:54:53;;;;;;;16.00;7.83;;;15.60;99.90;;;;;;4978589;28;20181;-85
2021/08/14 05:57:18;;;;;;;13.33;7.63;;;15.90;99.90;;;;;;4976854;28;20534;-84
2021/08/14 05:59:44;;;;;;;10.07;6.97;;;16.50;99.90;;;;;;4993100;28;20331;-86
2021/08/14 06:02:10;;;;;;;10.93;6.70;;;17.20;99.90;;;;;;4978100;28;20187;-85
2021/08/14 06:04:35;;;;;;;10.33;6.83;;;17.70;99.90;;;;;;4994888;28;20187;-86
2021/08/14 06:07:01;;;;;;;13.10;6.70;;;18.00;99.90;;;;;;4994436;28;20176;-86
2021/08/14 06:09:27;;;;;;;12.33;7.20;;;18.30;99.90;;;;;;4993600;28;20200;-85
2021/08/14 06:11:52;;;;;;;11.30;7.10;;;18.50;99.90;;;;;;4976795;28;20657;-85
2021/08/14 06:14:18;;;;;;;11.67;7.13;;;18.60;99.90;;;;;;4976966;28;20264;-85
2021/08/14 06:16:43;;;;;;;13.77;7.33;;;18.60;99.90;;;;;;4979094;28;20653;-85
2021/08/14 06:19:09;;;;;;;13.30;7.07;;;18.60;99.90;;;;;;4980736;28;20184;-85
2021/08/14 06:21:34;;;;;;;11.90;7.47;;;18.70;99.90;;;;;;4980906;28;20177;-85
2021/08/14 06:24:00;;;;;;;11.47;7.10;;;18.80;99.90;;;;;;4980225;28;20295;-86
2021/08/14 06:26:26;;;;;;;13.13;8.03;;;18.80;99.90;;;;;;4981443;28;20283;-82
2021/08/14 06:28:51;;;;;;;12.40;8.17;;;18.90;99.90;;;;;;4980730;28;20262;-77
2021/08/14 06:31:17;;;;;;;14.13;8.53;;;19.30;99.90;;;;;;4995571;28;20180;-77
2021/08/14 06:33:43;;;;;;;15.30;8.33;;;19.60;99.90;;;;;;4995019;28;20203;-76
2021/08/14 06:36:09;;;;;;;13.70;8.07;;;19.70;99.90;;;;;;4994970;28;20235;-76
2021/08/14 06:38:36;;;;;;;12.90;8.30;;;19.70;99.90;;;;;;4994859;28;20180;-76
2021/08/14 06:41:02;;;;;;;14.63;8.00;;;19.80;99.90;;;;;;4994985;28;20176;-76
2021/08/14 06:43:28;;;;;;;15.17;8.87;;;20.00;99.90;;;;;;4995200;28;20599;-78
2021/08/14 06:45:53;;;;;;;15.97;9.00;;;20.20;99.90;;;;;;4995144;28;20204;-77
2021/08/14 06:48:19;;;;;;;18.20;8.57;;;20.30;99.90;;;;;;4995194;28;20180;-77
2021/08/14 06:50:44;;;;;;;16.13;8.27;;;20.60;99.90;;;;;;4994648;28;20184;-77
2021/08/14 06:53:10;;;;;;;14.57;8.63;;;20.80;99.90;;;;;;4994826;28;20208;-76
2021/08/14 06:55:35;;;;;;;16.67;8.60;;;20.90;99.90;;;;;;4995345;28;20188;-85
2021/08/14 06:58:01;;;;;;;17.60;9.13;;;21.10;99.90;;;;;;4999793;28;20181;-85
2021/08/14 07:00:26;;;;;;;12.20;8.57;;;21.70;99.90;;;;;;4982540;28;20184;-85
2021/08/14 07:02:53;;;;;;;16.10;8.13;;;22.20;99.90;;;;;;4982529;28;20268;-85
2021/08/14 07:05:18;;;;;;;15.43;7.83;;;23.10;99.90;;;;;;5000593;28;20180;-85
2021/08/14 07:07:44;;;;;;;16.27;8.30;;;23.80;99.90;;;;;;4996205;28;20200;-85
2021/08/14 07:10:10;;;;;;;16.17;7.70;;;23.90;99.90;;;;;;4982919;28;20655;-85
2021/08/14 07:12:35;;;;;;;13.57;8.23;;;24.60;99.90;;;;;;5008772;28;20255;-86
2021/08/14 07:15:01;;;;;;;13.00;7.93;;;25.40;99.90;;;;;;4998896;28;20172;-85
2021/08/14 07:17:27;;;;;;;15.43;8.03;;;25.50;99.90;;;;;;4995118;28;20177;-82
2021/08/14 07:19:52;;;;;;;17.63;8.73;;;25.30;99.90;;;;;;4978609;28;20188;-84
2021/08/14 07:22:18;;;;;;;13.87;8.03;;;24.80;99.90;;;;;;4981196;28;20242;-84
2021/08/14 07:24:44;;;;;;;16.13;8.87;;;24.80;99.90;;;;;;4983314;28;20192;-83
2021/08/14 07:27:09;;;;;;;17.80;8.73;;;25.40;99.90;;;;;;4981666;28;20188;-84
2021/08/14 07:29:35;;;;;;;15.00;9.00;;;25.70;99.90;;;;;;4983205;28;20215;-84
2021/08/14 07:32:00;;;;;;;15.38;8.60;;;25.50;99.90;;;;;;4985067;28;20182;-84
2021/08/14 07:34:26;;;;;;;16.38;9.20;;;25.00;99.90;;;;;;4998967;28;20210;-84
2021/08/14 07:36:51;;;;;;;17.15;9.60;;;24.40;99.90;;;;;;4982469;28;20180;-85
2021/08/14 07:39:17;;;;;;;16.50;9.30;;;24.00;99.90;;;;;;4984646;28;20194;-85
2021/08/14 07:41:43;;;;;;;15.95;9.93;;;23.80;99.90;;;;;;5004151;28;20179;-85
2021/08/14 07:44:08;;;;;;;17.00;9.85;;;23.40;99.90;;;;;;4998629;28;20220;-84
2021/08/14 07:46:34;;;;;;;18.30;9.37;;;23.40;99.90;;;;;;5000727;28;20164;-84
2021/08/14 07:49:00;;;;;;;15.37;8.33;;;23.40;99.90;;;;;;4999382;28;20203;-82
2021/08/14 07:51:26;;;;;;;13.27;7.30;;;23.50;99.90;;;;;;4999684;28;20172;-85
2021/08/14 07:53:51;;;;;;;17.97;7.70;;;23.60;99.90;;;;;;4985655;28;20215;-82
2021/08/14 07:56:17;;;;;;;12.90;8.02;;;23.60;99.90;;;;;;5003009;28;20432;-85
2021/08/14 07:58:42;;;;;;;13.15;8.52;;;23.70;99.90;;;;;;5001647;28;20576;-84
2021/08/14 08:01:08;;;;;;;14.35;8.30;;;23.80;99.90;;;;;;5001091;28;20611;-84
2021/08/14 08:03:33;;;;;;;15.88;8.07;;;23.90;99.90;;;;;;5001818;28;20567;-83
2021/08/14 08:05:59;;;;;;;13.43;7.22;;;24.00;99.90;;;;;;5000602;28;20188;-83
2021/08/14 08:08:25;;;;;;;18.60;7.35;;;24.00;99.90;;;;;;5001502;28;20187;-84
2021/08/14 08:10:50;;;;;;;12.50;7.43;;;24.00;99.90;;;;;;5001726;28;20180;-85
2021/08/14 08:13:16;;;;;;;11.38;6.03;;;24.00;99.90;;;;;;5001184;28;20193;-85
2021/08/14 08:15:41;;;;;;;13.10;5.55;;;23.80;99.90;;;;;;4999190;28;20655;-82
2021/08/14 08:18:07;;;;;;;8.85;5.07;;;23.90;99.90;;;;;;4999429;28;20177;-81
2021/08/14 08:20:33;;;;;;;11.20;4.55;;;23.90;99.90;;;;;;4999969;28;20692;-82
2021/08/14 08:22:58;;;;;;;9.00;4.22;;;24.00;99.90;;;;;;5000050;28;20196;-81
2021/08/14 08:25:24;;;;;;;9.13;4.18;;;24.10;99.90;;;;;;4983751;28;20181;-83
2021/08/14 08:27:50;;;;;;;11.82;4.60;;;24.30;99.90;;;;;;4999667;28;20178;-82
2021/08/14 08:30:17;;;;;;;12.38;4.57;;;24.30;99.90;;;;;;4998853;28;20200;-79
2021/08/14 08:32:43;;;;;;;8.57;4.03;;;24.20;99.90;;;;;;4997934;28;20192;-83
2021/08/14 08:35:09;;;;;;;12.30;4.25;;;24.10;99.90;;;;;;4999010;28;20256;-83
2021/08/14 08:37:34;;;;;;;11.30;3.88;;;24.00;99.90;;;;;;4998642;28;20188;-83
2021/08/14 08:40:00;;;;;;;9.70;3.40;;;24.10;99.90;;;;;;4996672;28;20184;-79
2021/08/14 08:42:25;;;;;;;7.87;3.73;;;24.00;99.90;;;;;;4997568;28;20188;-78
2021/08/14 08:44:51;;;;;;;13.67;4.33;;;24.00;99.90;;;;;;4997898;28;20609;-82
2021/08/14 08:47:17;;;;;;;9.70;3.63;;;23.90;99.90;;;;;;4998068;28;20180;-81
2021/08/14 08:50:01;;;;;;;11.53;4.13;;;24.00;99.90;;;;;;4999082;28;20239;-81
2021/08/14 08:52:26;;;;;;;11.33;3.70;;;24.10;99.90;;;;;;4982964;28;20196;-80
2021/08/14 08:54:52;;;;;;;8.65;3.88;;;24.20;99.90;;;;;;4983030;28;20305;-80
2021/08/14 08:57:18;;;;;;;10.95;3.60;;;24.40;99.90;;;;;;4998553;28;20230;-81
2021/08/14 08:59:45;;;;;;;8.43;3.10;;;24.30;99.90;;;;;;4982344;28;20226;-81
2021/08/14 09:02:27;;;;;;;9.93;3.43;;;24.40;99.90;;;;;;4998099;28;20176;-83
2021/08/14 09:05:17;;;;;;;7.13;2.90;;;24.50;99.90;;;;;;4998252;28;20226;-79
2021/08/14 09:07:49;;;;;;;8.63;2.93;;;24.60;99.90;;;;;;5004041;28;20192;-77
2021/08/14 09:10:17;;;;;;;8.80;2.88;;;24.50;99.90;;;;;;4998896;28;20211;-81
2021/08/14 09:12:43;;;;;;;10.77;3.28;;;24.40;99.90;;;;;;4983953;28;20200;-80
2021/08/14 09:15:19;;;;;;;9.07;2.80;;;24.40;99.90;;;;;;4999029;28;20549;-82
2021/08/14 09:17:45;;;;;;;5.67;2.20;;;24.40;99.90;;;;;;5000369;28;20187;-77
2021/08/14 09:20:18;;;;;;;6.33;2.63;;;24.40;99.90;;;;;;4976724;28;20269;-81
2021/08/14 09:22:58;;;;;;;5.80;2.23;;;24.40;99.90;;;;;;4990536;28;20542;-79
2021/08/14 09:25:23;;;;;;;8.77;2.77;;;24.30;99.90;;;;;;4994486;28;20190;-81
2021/08/14 09:28:02;;;;;;;8.13;2.30;;;24.30;99.90;;;;;;4986200;28;20661;-81
2021/08/14 09:30:53;;;;;;;6.60;2.13;;;24.30;99.90;;;;;;4995331;28;20207;-81
2021/08/14 09:33:29;;;;;;;7.20;2.60;;;24.40;99.90;;;;;;4981312;28;20207;-80
2021/08/14 09:35:59;;;;;;;7.32;2.35;;;24.50;99.90;;;;;;4982884;28;20184;-80
2021/08/14 09:38:44;;;;;;;7.25;2.33;;;24.60;99.90;;;;;;4982784;28;20176;-81
2021/08/14 09:41:20;;;;;;;6.00;2.05;;;24.70;99.90;;;;;;4986388;28;20224;-74
2021/08/14 09:43:47;;;;;;;6.10;2.58;;;24.70;99.90;;;;;;4972304;28;20200;-75
2021/08/14 09:46:13;;;;;;;8.18;2.58;;;24.80;99.90;;;;;;4972497;28;20200;-75
2021/08/14 09:48:38;;;;;;;5.43;2.05;;;24.80;99.90;;;;;;4986729;28;20176;-75
2021/08/14 09:51:04;;;;;;;5.82;2.22;;;24.90;99.90;;;;;;4992671;28;20184;-75
2021/08/14 09:53:30;;;;;;;6.07;2.13;;;24.90;99.90;;;;;;4980634;28;20282;-74
2021/08/14 09:56:09;;;;;;;4.82;2.45;;;24.90;99.90;;;;;;4992260;28;20632;-74
2021/08/14 09:58:39;;;;;;;5.43;2.13;;;25.00;99.90;;;;;;4985830;28;20176;-76
2021/08/14 10:01:05;;;;;;;5.18;2.22;;;24.90;99.90;;;;;;4971345;28;20236;-75
2021/08/14 10:03:31;;;;;;;6.97;2.42;;;24.90;99.90;;;;;;4982450;28;20200;-75
2021/08/14 10:05:58;;;;;;;4.38;2.20;;;24.80;99.90;;;;;;4986757;28;20727;-75
2021/08/14 10:08:27;;;;;;;6.70;2.30;;;24.80;99.90;;;;;;4986590;28;20617;-75
2021/08/14 10:10:53;;;;;;;5.72;2.20;;;24.90;99.90;;;;;;4988696;28;20188;-75
2021/08/14 10:13:19;;;;;;;9.10;2.40;;;24.90;99.90;;;;;;4986950;28;20224;-75
2021/08/14 10:15:45;;;;;;;6.05;2.00;;;25.00;99.90;;;;;;4985543;28;20546;-75
2021/08/14 10:18:11;;;;;;;6.32;2.38;;;25.00;99.90;;;;;;4970171;28;20181;-75
2021/08/14 10:20:36;;;;;;;5.80;2.10;;;25.10;99.90;;;;;;4967182;28;20342;-75
2021/08/14 10:23:04;;;;;;;5.60;2.33;;;25.00;99.90;;;;;;4984045;28;20686;-75
2021/08/14 10:25:29;;;;;;;4.63;2.00;;;25.10;99.90;;;;;;4984184;28;20525;-75
2021/08/14 10:28:00;;;;;;;4.00;2.00;;;25.10;99.90;;;;;;4988796;28;20180;-76
2021/08/14 10:30:34;;;;;;;5.88;2.30;;;25.10;99.90;;;;;;4987545;28;20203;-76
2021/08/14 10:33:00;;;;;;;4.93;2.13;;;25.00;99.90;;;;;;4983026;28;20606;-76
2021/08/14 10:35:25;;;;;;;5.85;2.00;;;25.10;99.90;;;;;;4984076;28;20184;-76
2021/08/14 10:37:51;;;;;;;4.38;2.08;;;25.10;99.90;;;;;;4985198;28;20667;-76
2021/08/14 10:40:17;;;;;;;6.80;2.00;;;25.00;99.90;;;;;;4976797;28;20188;-77
2021/08/14 10:42:58;;;;;;;5.68;2.10;;;25.00;99.90;;;;;;4968461;28;20246;-76
2021/08/14 10:45:35;;;;;;;5.35;2.10;;;25.10;99.90;;;;;;4992267;28;20643;-76
2021/08/14 10:48:05;;;;;;;4.75;2.00;;;25.10;99.90;;;;;;4994655;28;20179;-76
2021/08/14 10:50:33;;;;;;;4.25;1.88;;;25.30;99.90;;;;;;4995007;28;20298;-75
2021/08/14 10:53:11;;;;;;;4.53;1.95;;;25.40;99.90;;;;;;4995961;28;20662;-76
2021/08/14 10:56:03;;;;;;;6.78;2.45;;;25.40;99.90;;;;;;4986783;28;20600;-74
2021/08/14 10:58:32;;;;;;;5.32;2.15;;;25.50;99.90;;;;;;4990088;28;20191;-75
2021/08/14 11:01:04;;;;;;;8.13;3.00;;;25.50;99.90;;;;;;4973843;28;20185;-76
2021/08/14 11:03:36;;;;;;;5.35;2.20;;;25.50;99.90;;;;;;4973864;28;20197;-75
2021/08/14 11:06:25;;;;;;;6.38;2.20;;;25.50;99.90;;;;;;4973221;28;20181;-75
2021/08/14 11:09:17;;;;;;;6.15;2.10;;;25.50;99.90;;;;;;4957303;28;20205;-78
2021/08/14 11:11:58;;;;;;;5.68;2.55;;;25.50;99.90;;;;;;4973289;28;20192;-77
2021/08/14 11:14:37;;;;;;;5.00;2.30;;;25.50;99.90;;;;;;4973477;28;20205;-78
2021/08/14 11:17:03;;;;;;;5.82;2.28;;;25.60;99.90;;;;;;4990845;28;20207;-78
2021/08/14 11:19:50;;;;;;;4.07;2.03;;;25.70;99.90;;;;;;4990728;28;20189;-78
2021/08/14 11:22:21;;;;;;;5.38;2.28;;;25.70;99.90;;;;;;4975902;28;20256;-78
2021/08/14 11:24:47;;;;;;;5.07;2.00;;;25.70;99.90;;;;;;4976852;28;20184;-79
2021/08/14 11:27:48;;;;;;;4.07;2.00;;;25.70;99.90;;;;;;4960317;28;20187;-81
2021/08/14 11:30:14;;;;;;;6.72;2.35;;;25.70;99.90;;;;;;4943694;28;20710;-83
2021/08/14 11:32:40;;;;;;;5.25;2.10;;;25.70;99.90;;;;;;4978290;28;20220;-80
2021/08/14 11:35:06;;;;;;;6.85;2.13;;;25.60;99.90;;;;;;4978652;28;20180;-79
2021/08/14 11:37:52;;;;;;;4.30;2.05;;;25.60;99.90;;;;;;4964090;28;20565;-79
2021/08/14 11:40:22;;;;;;;6.18;1.90;;;25.50;99.90;;;;;;4979486;28;20173;-78
2021/08/14 11:42:56;;;;;;;4.18;2.00;;;25.40;99.90;;;;;;4963604;28;20197;-80
2021/08/14 11:45:21;;;;;;;6.65;1.92;;;25.40;99.90;;;;;;4979361;28;20546;-79
2021/08/14 11:47:51;;;;;;;5.43;2.08;;;25.40;99.90;;;;;;4963729;28;20173;-80
2021/08/14 11:50:17;;;;;;;5.30;2.00;;;25.40;99.90;;;;;;4964023;28;20220;-80
2021/08/14 11:52:43;;;;;;;5.47;2.13;;;25.50;99.90;;;;;;4963614;28;20212;-79
2021/08/14 11:55:10;;;;;;;6.93;2.00;;;25.50;99.90;;;;;;4960201;28;20204;-78
2021/08/14 11:57:37;;;;;;;4.90;2.10;;;25.60;99.90;;;;;;4986659;28;20208;-77
2021/08/14 12:00:25;;;;;;;4.03;1.95;;;25.70;99.90;;;;;;4994688;28;20620;-76
2021/08/14 12:03:09;;;;;;;6.00;2.00;;;25.80;99.90;;;;;;4974510;28;20197;-77
2021/08/14 12:05:36;;;;;;;4.13;2.08;;;25.80;99.90;;;;;;4959446;28;20614;-77
2021/08/14 12:08:02;;;;;;;5.15;1.88;;;25.80;99.90;;;;;;4978130;28;20540;-79
2021/08/14 12:10:28;;;;;;;5.93;1.98;;;25.80;99.90;;;;;;4973111;28;20269;-78
2021/08/14 12:12:59;;;;;;;4.35;2.08;;;25.90;99.90;;;;;;4972024;28;20196;-78
2021/08/14 12:15:44;;;;;;;5.75;2.20;;;25.90;99.90;;;;;;4973541;28;20645;-78
2021/08/14 12:18:10;;;;;;;5.07;1.88;;;26.10;99.90;;;;;;4956554;28;20656;-78
2021/08/14 12:20:38;;;;;;;4.20;1.83;;;26.00;99.90;;;;;;4972492;28;20715;-77
2021/08/14 12:23:20;;;;;;;9.82;2.30;;;26.00;99.90;;;;;;4956418;28;20639;-78
2021/08/14 12:25:59;;;;;;;6.55;2.65;;;25.90;99.90;;;;;;4972856;28;20558;-77
2021/08/14 12:28:31;;;;;;;2.97;1.70;;;25.80;99.90;;;;;;4957470;28;20195;-77
2021/08/14 12:30:58;;;;;;;4.70;2.28;;;25.80;99.90;;;;;;4957301;28;20260;-78
2021/08/14 12:33:28;;;;;;;5.30;2.40;;;25.90;99.90;;;;;;4957385;28;20196;-77
2021/08/14 12:35:55;;;;;;;5.85;2.50;;;25.80;99.90;;;;;;4957224;28;20264;-79
2021/08/14 12:38:20;;;;;;;4.30;2.20;;;25.90;99.90;;;;;;4973314;28;20603;-78
2021/08/14 12:40:46;;;;;;;7.18;2.25;;;25.80;99.90;;;;;;4972927;28;20173;-77
2021/08/14 12:43:18;;;;;;;4.05;2.00;;;25.80;99.90;;;;;;4973158;28;20201;-77